Terminal Aerodrome Forecast
Issued by NWS

Home | Current Version | Previous Version | Text Only | Print | Product List | Glossary On
Versions: 1 2 3 4 5 6 7 8 9 10 11 12
000
FTUS43 KAPX 201120
TAFTVC
TAF
KTVC 201120Z 2012/2112 19006KT P6SM FEW250 WS012/23035KT
     FM201500 20008G15KT P6SM FEW250
     FM201700 21012G24KT P6SM FEW250
     FM210100 20007KT P6SM FEW250 WS013/22036KT=

USA.gov is the U.S. government's official web portal to all federal, state and local government web resources and services.